createdAt,value
2022-11-25T00:05:33.159Z,100.00
2022-11-25T00:15:34.910Z,100.00
2022-11-25T00:25:41.677Z,100.00
2022-11-25T00:35:45.256Z,100.00
2022-11-25T00:45:46.944Z,100.00
2022-11-25T00:56:07.120Z,100.00
2022-11-25T01:06:11.142Z,100.00
2022-11-25T01:16:15.943Z,100.00
2022-11-25T01:26:21.466Z,100.00
2022-11-25T01:36:23.959Z,100.00
2022-11-25T01:46:27.479Z,100.00
2022-11-25T01:56:33.314Z,100.00
2022-11-25T02:06:41.340Z,100.00
2022-11-25T02:16:46.238Z,100.00
2022-11-25T02:26:48.106Z,100.00
2022-11-25T02:36:57.932Z,100.00
2022-11-25T02:46:59.573Z,100.00
2022-11-25T02:57:02.359Z,100.00
2022-11-25T03:07:04.013Z,100.00
2022-11-25T03:17:05.641Z,100.00
2022-11-25T03:27:07.224Z,100.00
2022-11-25T03:37:09.402Z,100.00
2022-11-25T03:47:11.146Z,100.00
2022-11-25T03:57:13.876Z,100.00
2022-11-25T04:07:18.720Z,100.00
2022-11-25T04:17:20.328Z,100.00
2022-11-25T04:27:21.984Z,100.00
2022-11-25T04:37:23.839Z,100.00
2022-11-25T04:47:25.536Z,100.00
2022-11-25T04:57:27.195Z,100.00
2022-11-25T05:07:29.115Z,100.00
2022-11-25T05:17:32.215Z,100.00
2022-11-25T05:27:34.872Z,100.00
2022-11-25T05:37:36.610Z,100.00
2022-11-25T05:47:39.260Z,100.00
2022-11-25T05:57:42.100Z,100.00
2022-11-25T06:07:43.918Z,100.00
2022-11-25T06:17:45.688Z,100.00
2022-11-25T06:28:11.391Z,100.00
2022-11-25T06:38:09.696Z,100.00
2022-11-25T06:48:12.357Z,100.00
2022-11-25T06:58:34.814Z,100.00
2022-11-25T07:08:37.660Z,100.00
2022-11-25T07:18:40.371Z,100.00
2022-11-25T07:28:45.286Z,100.00
2022-11-25T07:38:47.124Z,100.00
2022-11-25T07:48:52.372Z,100.00
2022-11-25T07:58:54.999Z,100.00
2022-11-25T08:08:57.946Z,100.00
2022-11-25T08:19:01.952Z,100.00
2022-11-25T08:29:05.522Z,100.00
2022-11-25T08:39:28.925Z,100.00
2022-11-25T08:49:32.796Z,100.00
2022-11-25T08:59:39.919Z,86.12
2022-11-25T09:09:41.891Z,68.10
2022-11-25T09:19:43.586Z,62.22
2022-11-25T09:29:47.251Z,58.10
2022-11-25T09:39:50.839Z,52.21
2022-11-25T09:50:09.308Z,50.52
2022-11-25T10:00:14.146Z,48.03
2022-11-25T10:10:26.285Z,48.40
2022-11-25T10:20:37.010Z,42.77
2022-11-25T10:30:42.368Z,39.84
2022-11-25T10:40:48.990Z,36.78
2022-11-25T10:51:03.626Z,36.78
2022-11-25T11:01:18.160Z,37.05
2022-11-25T11:11:24.229Z,38.64
2022-11-25T11:21:32.582Z,38.59
2022-11-25T11:31:41.037Z,36.78
2022-11-25T11:42:14.552Z,35.57
2022-11-25T11:52:25.386Z,36.74
2022-11-25T12:02:50.238Z,37.19
2022-11-25T12:13:10.840Z,36.90
2022-11-25T12:23:49.972Z,45.33
2022-11-25T12:34:14.084Z,56.44
2022-11-25T12:44:26.514Z,51.81
2022-11-25T12:54:41.150Z,53.19
2022-11-25T13:10:55.717Z,46.42
2022-11-25T13:15:56.789Z,47.04
2022-11-25T13:26:33.162Z,55.06
2022-11-25T13:36:50.610Z,65.39
2022-11-25T13:47:20.054Z,64.99
2022-11-25T13:57:35.785Z,72.71
2022-11-25T14:08:08.294Z,91.27
2022-11-25T14:19:16.759Z,95.35
2022-11-25T14:29:23.457Z,100.00
2022-11-25T14:39:46.885Z,100.00
2022-11-25T14:50:11.840Z,100.00
2022-11-25T15:00:18.806Z,100.00
2022-11-25T15:10:50.034Z,100.00
2022-11-25T15:21:01.973Z,100.00
2022-11-25T15:31:15.948Z,100.00
2022-11-25T15:41:28.822Z,100.00
2022-11-25T15:51:41.833Z,100.00
2022-11-25T16:01:43.676Z,100.00
2022-11-25T16:11:47.322Z,100.00
2022-11-25T16:22:01.275Z,100.00
2022-11-25T16:32:16.068Z,100.00
2022-11-25T16:42:22.540Z,100.00
2022-11-25T16:52:30.815Z,100.00
2022-11-25T17:02:33.757Z,100.00
2022-11-25T17:12:38.865Z,100.00
2022-11-25T17:22:45.970Z,100.00
2022-11-25T17:32:49.093Z,100.00
2022-11-25T17:42:52.781Z,100.00
2022-11-25T17:52:55.507Z,100.00
2022-11-25T18:02:57.249Z,100.00
2022-11-25T18:12:59.677Z,100.00
2022-11-25T18:23:01.561Z,100.00
2022-11-25T18:33:06.045Z,100.00
2022-11-25T18:43:16.661Z,100.00
2022-11-25T18:53:19.565Z,100.00
2022-11-25T19:03:26.413Z,100.00
2022-11-25T19:13:35.506Z,100.00
2022-11-25T19:23:37.532Z,100.00
2022-11-25T19:33:47.667Z,100.00
2022-11-25T19:44:01.383Z,100.00
2022-11-25T19:54:22.921Z,100.00
2022-11-25T20:04:25.248Z,100.00
2022-11-25T20:14:28.585Z,100.00
2022-11-25T20:24:30.777Z,100.00
2022-11-25T20:34:38.770Z,100.00
2022-11-25T20:44:44.276Z,100.00
2022-11-25T20:54:47.466Z,100.00
2022-11-25T21:04:49.633Z,100.00
2022-11-25T21:14:52.313Z,100.00
2022-11-25T21:24:54.339Z,100.00
2022-11-25T21:35:00.467Z,100.00
2022-11-25T21:45:02.751Z,100.00
2022-11-25T21:55:04.807Z,100.00
2022-11-25T22:05:18.128Z,100.00
2022-11-25T22:15:26.026Z,100.00
2022-11-25T22:25:31.267Z,100.00
2022-11-25T22:35:32.967Z,100.00
2022-11-25T22:45:34.867Z,100.00
2022-11-25T22:55:36.524Z,100.00
2022-11-25T23:05:39.634Z,100.00
2022-11-25T23:15:48.555Z,100.00
2022-11-25T23:25:50.730Z,100.00
2022-11-25T23:35:52.564Z,100.00
2022-11-25T23:45:56.537Z,100.00
2022-11-25T23:55:58.207Z,100.00
